Time;durP1;ratioP1;P1;durP2;ratioP2;P2;SDS_P1;SDS_P2;PMS_P1;PMS_P2;Temp;Humidity;BMP_temperature;BMP_pressure;BME280_temperature;BME280_humidity;BME280_pressure;Samples;Min_cycle;Max_cycle;Signal;HPM_P1;HPM_P2
2023/12/05 00:00:20;;;;;;;0.68;0.68;;;-0.20;99.90;;;;;;5065287;28;20036;-75
2023/12/05 00:02:46;;;;;;;0.50;0.50;;;-0.20;99.90;;;;;;5068397;28;20041;-76
2023/12/05 00:05:12;;;;;;;0.80;0.80;;;-0.20;99.90;;;;;;5052300;28;20074;-77
2023/12/05 00:07:38;;;;;;;2.88;2.35;;;-0.20;99.90;;;;;;5069807;28;20049;-76
2023/12/05 00:10:05;;;;;;;0.60;0.60;;;-0.20;99.90;;;;;;5054431;28;20041;-77
2023/12/05 00:12:30;;;;;;;0.75;0.75;;;-0.20;99.90;;;;;;5070733;28;20082;-77
2023/12/05 00:14:56;;;;;;;0.70;0.70;;;-0.20;99.90;;;;;;5054156;28;20123;-77
2023/12/05 00:17:22;;;;;;;0.65;0.65;;;0.00;99.90;;;;;;5052356;28;20094;-77
2023/12/05 00:19:48;;;;;;;0.70;0.70;;;-0.20;99.90;;;;;;5068634;28;20374;-76
2023/12/05 00:22:14;;;;;;;0.90;0.90;;;-0.30;99.90;;;;;;5068717;28;20413;-76
2023/12/05 00:24:40;;;;;;;0.80;0.80;;;-0.30;99.90;;;;;;5052747;28;20485;-76
2023/12/05 00:27:05;;;;;;;0.60;0.60;;;-0.30;99.90;;;;;;5067677;28;20040;-76
2023/12/05 00:29:31;;;;;;;0.75;0.75;;;-0.40;99.90;;;;;;5070184;28;20040;-76
2023/12/05 00:31:57;;;;;;;0.75;0.75;;;-0.40;99.90;;;;;;5070306;28;20076;-77
2023/12/05 00:34:22;;;;;;;0.52;0.52;;;-0.40;99.90;;;;;;5069238;28;20048;-77
2023/12/05 00:36:48;;;;;;;0.60;0.60;;;-0.40;99.90;;;;;;5068730;28;20473;-77
2023/12/05 00:39:14;;;;;;;0.80;0.80;;;-0.40;99.90;;;;;;5050476;28;20059;-76
2023/12/05 00:41:40;;;;;;;0.80;0.80;;;-0.50;99.90;;;;;;5068751;28;20032;-77
2023/12/05 00:44:06;;;;;;;0.80;0.80;;;-0.50;99.90;;;;;;5085606;28;20493;-77
2023/12/05 00:46:31;;;;;;;0.70;0.70;;;-0.50;99.90;;;;;;5068363;28;20412;-76
2023/12/05 00:48:57;;;;;;;3.40;1.45;;;-0.50;99.90;;;;;;5079972;28;20048;-76
2023/12/05 00:51:22;;;;;;;0.70;0.70;;;-0.50;99.90;;;;;;5069030;28;20151;-77
2023/12/05 00:53:48;;;;;;;0.73;0.73;;;-0.50;99.90;;;;;;5070136;28;20098;-76
2023/12/05 00:56:14;;;;;;;0.70;0.70;;;-0.50;99.90;;;;;;5052742;28;20040;-76
2023/12/05 00:58:40;;;;;;;0.63;0.63;;;-0.50;99.90;;;;;;5053474;28;20032;-76
2023/12/05 01:01:07;;;;;;;;;;;-0.40;99.90;;;;;;5035627;28;20394;-77
2023/12/05 01:03:33;;;;;;;0.70;0.70;;;-0.50;99.90;;;;;;5067773;28;19931;-76
2023/12/05 01:05:59;;;;;;;0.73;0.73;;;-0.50;99.90;;;;;;5069650;28;20032;-76
2023/12/05 01:08:24;;;;;;;0.68;0.68;;;-0.40;99.90;;;;;;5068324;28;20039;-76
2023/12/05 01:10:50;;;;;;;0.80;0.80;;;-0.40;99.90;;;;;;5052512;28;20036;-76
2023/12/05 01:13:16;;;;;;;0.70;0.70;;;-0.40;99.90;;;;;;5066945;28;20446;-76
2023/12/05 01:15:41;;;;;;;0.63;0.63;;;-0.40;99.90;;;;;;5069742;28;20040;-76
2023/12/05 01:18:07;;;;;;;0.70;0.70;;;-0.40;99.90;;;;;;5069201;28;20447;-77
2023/12/05 01:20:33;;;;;;;0.70;0.70;;;-0.40;99.90;;;;;;5068790;28;20072;-76
2023/12/05 01:22:59;;;;;;;;;;;-0.40;99.90;;;;;;5067120;28;20068;-75
2023/12/05 01:25:25;;;;;;;0.57;0.57;;;-0.40;99.90;;;;;;5084154;28;20381;-75
2023/12/05 01:27:51;;;;;;;0.80;0.80;;;-0.40;99.90;;;;;;5068180;28;20064;-75
2023/12/05 01:30:17;;;;;;;0.70;0.70;;;-0.40;99.90;;;;;;5068432;28;20044;-75
2023/12/05 01:32:43;;;;;;;0.70;0.70;;;-0.40;99.90;;;;;;5051472;28;20056;-76
2023/12/05 01:35:09;;;;;;;0.70;0.70;;;-0.40;99.90;;;;;;5067516;28;20368;-75
2023/12/05 01:37:37;;;;;;;0.63;0.63;;;-0.40;99.90;;;;;;5067091;28;20051;-76
2023/12/05 01:40:05;;;;;;;0.70;0.70;;;-0.40;99.90;;;;;;5067056;28;20426;-76
2023/12/05 01:42:38;;;;;;;0.60;0.60;;;-0.40;99.90;;;;;;5067323;28;20054;-76
2023/12/05 01:45:05;;;;;;;0.60;0.60;;;-0.40;99.90;;;;;;5068663;28;20425;-76
2023/12/05 01:47:33;;;;;;;0.70;0.70;;;-0.40;99.90;;;;;;5051097;28;20032;-76
2023/12/05 01:49:59;;;;;;;0.70;0.70;;;-0.40;99.90;;;;;;5067311;28;20501;-76
2023/12/05 01:52:25;;;;;;;0.70;0.70;;;-0.40;99.90;;;;;;5067439;28;20037;-75
2023/12/05 01:54:52;;;;;;;0.70;0.70;;;-0.40;99.90;;;;;;5068108;28;20033;-76
2023/12/05 01:57:18;;;;;;;0.63;0.63;;;-0.40;99.90;;;;;;5067553;28;20535;-76
2023/12/05 01:59:44;;;;;;;0.70;0.70;;;-0.40;99.90;;;;;;5067238;28;20036;-76
2023/12/05 02:02:10;;;;;;;0.80;0.80;;;-0.40;99.90;;;;;;5034703;28;20047;-77
2023/12/05 02:04:38;;;;;;;0.70;0.70;;;-0.40;99.90;;;;;;5066652;28;20124;-77
2023/12/05 02:07:04;;;;;;;0.60;0.60;;;-0.40;99.90;;;;;;5067664;28;20513;-77
2023/12/05 02:09:31;;;;;;;0.70;0.70;;;-0.40;99.90;;;;;;5067817;28;20071;-77
2023/12/05 02:11:57;;;;;;;0.65;0.65;;;-0.40;99.90;;;;;;5068251;28;20040;-77
2023/12/05 02:14:23;;;;;;;;;;;-0.50;99.90;;;;;;5035689;28;20166;-76
2023/12/05 02:17:00;;;;;;;0.70;0.70;;;-0.40;99.90;;;;;;5051123;28;19920;-76
2023/12/05 02:19:32;;;;;;;0.70;0.70;;;-0.40;99.90;;;;;;5084000;28;20048;-77
2023/12/05 02:22:01;;;;;;;0.75;0.75;;;-0.40;99.90;;;;;;5067451;28;20051;-76
2023/12/05 02:25:01;;;;;;;0.85;0.85;;;-0.40;99.90;;;;;;5066430;28;20089;-76
2023/12/05 02:27:37;;;;;;;0.70;0.70;;;-0.40;99.90;;;;;;5064604;28;20401;-76
2023/12/05 02:30:04;;;;;;;0.70;0.70;;;-0.40;99.90;;;;;;5051380;28;20508;-76
2023/12/05 02:32:29;;;;;;;0.60;0.60;;;-0.40;99.90;;;;;;5049800;28;20055;-78
2023/12/05 02:34:55;;;;;;;0.73;0.73;;;-0.40;99.90;;;;;;5067735;28;20040;-77
2023/12/05 02:37:32;;;;;;;0.70;0.70;;;-0.40;99.90;;;;;;5048566;28;20067;-76
2023/12/05 02:40:07;;;;;;;0.65;0.65;;;-0.40;99.90;;;;;;5049386;28;20052;-77
2023/12/05 02:42:34;;;;;;;0.70;0.70;;;-0.40;99.90;;;;;;5065462;28;20040;-77
2023/12/05 02:45:04;;;;;;;0.60;0.60;;;-0.40;99.90;;;;;;5050769;28;20505;-77
2023/12/05 02:47:32;;;;;;;0.70;0.70;;;-0.40;99.90;;;;;;5067449;28;20367;-77
2023/12/05 02:49:58;;;;;;;0.80;0.80;;;-0.40;99.90;;;;;;5067332;28;20062;-77
2023/12/05 02:52:24;;;;;;;0.60;0.60;;;-0.40;99.90;;;;;;5066695;28;20044;-76
2023/12/05 02:54:49;;;;;;;0.70;0.70;;;-0.40;99.90;;;;;;5050212;28;20040;-77
2023/12/05 02:57:15;;;;;;;0.82;0.82;;;-0.40;99.90;;;;;;5067202;28;20044;-76
2023/12/05 02:59:41;;;;;;;1.08;1.08;;;-0.40;99.90;;;;;;5065363;28;20048;-77
2023/12/05 03:02:06;;;;;;;0.70;0.70;;;-0.40;99.90;;;;;;5050077;28;20404;-77
2023/12/05 03:04:32;;;;;;;0.60;0.60;;;-0.40;99.90;;;;;;5048453;28;20032;-77
2023/12/05 03:06:58;;;;;;;0.70;0.70;;;-0.40;99.90;;;;;;5065328;28;20063;-77
2023/12/05 03:09:23;;;;;;;1.00;1.00;;;-0.40;99.90;;;;;;5048783;28;20082;-77
2023/12/05 03:11:49;;;;;;;0.70;0.70;;;-0.40;99.90;;;;;;5063807;28;20481;-76
2023/12/05 03:14:15;;;;;;;0.68;0.68;;;-0.40;99.90;;;;;;5050309;28;20693;-77
2023/12/05 03:16:42;;;;;;;1.08;1.08;;;-0.40;99.90;;;;;;5064487;28;20051;-77
2023/12/05 03:19:08;;;;;;;0.77;0.77;;;-0.40;99.90;;;;;;5066501;28;20036;-76
2023/12/05 03:21:33;;;;;;;0.70;0.70;;;-0.40;99.90;;;;;;5048962;28;20517;-76
2023/12/05 03:23:59;;;;;;;0.70;0.70;;;-0.40;99.90;;;;;;5049900;28;20040;-77
2023/12/05 03:26:25;;;;;;;0.70;0.70;;;-0.40;99.90;;;;;;5049063;28;20131;-77
2023/12/05 03:28:51;;;;;;;0.90;0.90;;;-0.40;99.90;;;;;;5065969;28;20047;-77
2023/12/05 03:31:18;;;;;;;0.70;0.70;;;-0.50;99.90;;;;;;5066329;28;20416;-77
2023/12/05 03:33:44;;;;;;;0.70;0.70;;;-0.40;99.90;;;;;;5067775;28;20519;-77
2023/12/05 03:36:11;;;;;;;0.70;0.70;;;-0.60;99.90;;;;;;5067151;28;20070;-76
2023/12/05 03:38:38;;;;;;;0.70;0.70;;;-0.40;99.90;;;;;;5064080;28;20054;-76
2023/12/05 03:41:05;;;;;;;0.80;0.80;;;-0.40;99.90;;;;;;5083198;28;20052;-76
2023/12/05 03:43:30;;;;;;;0.60;0.60;;;-0.40;99.90;;;;;;5066158;28;20486;-76
2023/12/05 03:45:56;;;;;;;0.75;0.75;;;-0.40;99.90;;;;;;5049773;28;20114;-76
2023/12/05 03:48:22;;;;;;;0.70;0.70;;;-0.30;99.90;;;;;;5066027;28;20091;-77
2023/12/05 03:50:47;;;;;;;0.70;0.70;;;-0.40;99.90;;;;;;5065341;28;20094;-77
2023/12/05 03:53:13;;;;;;;0.95;0.95;;;-0.40;99.90;;;;;;5049421;28;20044;-76
2023/12/05 03:55:39;;;;;;;0.60;0.60;;;-0.50;99.90;;;;;;5063691;28;20040;-76
2023/12/05 03:58:05;;;;;;;0.60;0.60;;;-0.40;99.90;;;;;;5065090;28;20046;-76
2023/12/05 04:00:30;;;;;;;0.60;0.60;;;-0.50;99.90;;;;;;5065301;28;20091;-75
2023/12/05 04:02:56;;;;;;;0.80;0.80;;;-0.40;99.90;;;;;;5066182;28;20128;-75
2023/12/05 04:05:22;;;;;;;0.52;0.52;;;-0.50;99.90;;;;;;5065973;28;20087;-76
2023/12/05 04:07:47;;;;;;;0.90;0.90;;;-0.50;99.90;;;;;;5064994;28;20541;-76
2023/12/05 04:10:13;;;;;;;0.70;0.70;;;-0.40;99.90;;;;;;5064671;28;20401;-76
2023/12/05 04:12:40;;;;;;;0.68;0.68;;;-0.30;99.90;;;;;;5066989;28;20449;-75
2023/12/05 04:15:07;;;;;;;0.60;0.60;;;-0.40;99.90;;;;;;5049681;28;20173;-77
2023/12/05 04:17:34;;;;;;;0.70;0.70;;;-0.40;99.90;;;;;;5065872;28;20043;-77
2023/12/05 04:20:00;;;;;;;0.77;0.77;;;-0.40;99.90;;;;;;5067358;28;20868;-76
2023/12/05 04:22:26;;;;;;;0.95;0.95;;;-0.40;99.90;;;;;;5063651;28;20489;-76
2023/12/05 04:24:52;;;;;;;;;;;-0.40;99.90;;;;;;5049576;28;20039;-76
2023/12/05 04:27:18;;;;;;;0.60;0.60;;;-0.50;99.90;;;;;;5083220;28;20335;-76
2023/12/05 04:29:45;;;;;;;0.50;0.50;;;-0.50;99.90;;;;;;5065375;28;20094;-77
2023/12/05 04:32:11;;;;;;;0.70;0.70;;;-0.40;99.90;;;;;;5049945;28;20036;-76
2023/12/05 04:34:41;;;;;;;;;;;-0.50;99.90;;;;;;5066396;28;20040;-76
2023/12/05 04:37:08;;;;;;;0.60;0.60;;;-0.40;99.90;;;;;;5067053;28;19939;-77
2023/12/05 04:39:34;;;;;;;0.93;0.93;;;-0.50;99.90;;;;;;5065896;28;20126;-77
2023/12/05 04:41:59;;;;;;;0.57;0.57;;;-0.50;99.90;;;;;;5051317;28;20698;-77
2023/12/05 04:44:27;;;;;;;0.82;0.82;;;-0.40;99.90;;;;;;5065330;28;20028;-77
2023/12/05 04:46:53;;;;;;;0.65;0.65;;;-0.40;99.90;;;;;;5067697;28;20567;-77
2023/12/05 04:49:19;;;;;;;;;;;-0.50;99.90;;;;;;5054612;28;20643;-75
2023/12/05 04:51:44;;;;;;;0.70;0.70;;;-0.40;99.90;;;;;;5085925;28;19920;-76
2023/12/05 04:54:10;;;;;;;0.70;0.70;;;-0.50;99.90;;;;;;5069508;28;20048;-77
2023/12/05 04:56:36;;;;;;;0.52;0.52;;;-0.50;99.90;;;;;;5068672;28;20044;-76
2023/12/05 04:59:02;;;;;;;0.80;0.80;;;-0.50;99.90;;;;;;5050630;28;20040;-76
2023/12/05 05:01:27;;;;;;;1.33;1.23;;;-0.50;99.90;;;;;;5070103;28;20059;-77
2023/12/05 05:03:53;;;;;;;0.55;0.55;;;-0.20;99.90;;;;;;5052542;28;20058;-76
2023/12/05 05:06:19;;;;;;;1.05;1.05;;;-0.50;99.90;;;;;;5069685;28;20044;-75
2023/12/05 05:08:44;;;;;;;0.60;0.60;;;-0.50;99.90;;;;;;5069038;28;20032;-76
2023/12/05 05:11:10;;;;;;;;;;;-0.50;99.90;;;;;;5051531;28;20090;-76
2023/12/05 05:13:36;;;;;;;0.60;0.60;;;-0.50;99.90;;;;;;5085508;28;19930;-77
2023/12/05 05:16:02;;;;;;;0.80;0.80;;;-0.50;99.90;;;;;;5068091;28;20048;-76
2023/12/05 05:18:28;;;;;;;3.35;2.85;;;-0.40;99.90;;;;;;5051711;28;20071;-76
2023/12/05 05:20:54;;;;;;;0.68;0.68;;;-0.50;99.90;;;;;;5067437;28;20482;-76
2023/12/05 05:23:19;;;;;;;0.80;0.80;;;-0.50;99.90;;;;;;5051236;28;20040;-76
2023/12/05 05:25:46;;;;;;;0.70;0.70;;;-0.50;99.90;;;;;;5036093;28;20493;-77
2023/12/05 05:28:12;;;;;;;0.60;0.60;;;-0.50;99.90;;;;;;5053270;28;20032;-77
2023/12/05 05:30:38;;;;;;;;;;;-0.50;99.90;;;;;;5068839;28;20391;-77
2023/12/05 05:33:03;;;;;;;0.80;0.80;;;-0.50;99.90;;;;;;5068111;28;20261;-77
2023/12/05 05:35:29;;;;;;;0.77;0.77;;;-0.50;99.90;;;;;;5068828;28;20040;-78
2023/12/05 05:37:55;;;;;;;0.70;0.70;;;-0.50;99.90;;;;;;5066983;28;20123;-77
2023/12/05 05:40:20;;;;;;;0.80;0.80;;;-0.50;99.90;;;;;;5066866;28;20074;-77
2023/12/05 05:42:46;;;;;;;0.50;0.50;;;-0.50;99.90;;;;;;5050879;28;20048;-77
2023/12/05 05:45:12;;;;;;;0.77;0.77;;;-0.50;99.90;;;;;;5053462;28;20032;-77
2023/12/05 05:47:38;;;;;;;1.05;1.05;;;-0.50;99.90;;;;;;5068968;28;20037;-76
2023/12/05 05:50:04;;;;;;;0.63;0.63;;;-0.50;99.90;;;;;;5068494;28;20116;-76
2023/12/05 05:52:30;;;;;;;0.60;0.60;;;-0.50;99.90;;;;;;5068110;28;20055;-76
2023/12/05 05:54:56;;;;;;;0.90;0.90;;;-0.50;99.90;;;;;;5068695;28;20421;-76
2023/12/05 05:57:21;;;;;;;0.70;0.70;;;-0.50;99.90;;;;;;5051815;28;20110;-76
2023/12/05 05:59:47;;;;;;;0.60;0.60;;;-0.50;99.90;;;;;;5068368;28;20132;-77
2023/12/05 06:02:14;;;;;;;0.60;0.60;;;-0.50;99.90;;;;;;5067748;28;20499;-77
2023/12/05 06:04:43;;;;;;;0.63;0.63;;;-0.50;99.90;;;;;;5067954;28;20048;-77
2023/12/05 06:07:09;;;;;;;0.70;0.70;;;1.00;99.90;;;;;;5067392;28;20097;-77
2023/12/05 06:09:34;;;;;;;;;;;-0.50;99.90;;;;;;5068145;28;20512;-76
2023/12/05 06:12:04;;;;;;;0.70;0.70;;;-0.50;99.90;;;;;;5051171;28;19920;-76
2023/12/05 06:14:30;;;;;;;0.80;0.80;;;-0.50;99.90;;;;;;5083760;28;20040;-76
2023/12/05 06:16:55;;;;;;;0.80;0.80;;;-0.50;99.90;;;;;;5066529;28;20042;-76
2023/12/05 06:19:21;;;;;;;0.60;0.60;;;-0.50;99.90;;;;;;5068423;28;20056;-75
2023/12/05 06:21:47;;;;;;;0.80;0.80;;;-0.50;99.90;;;;;;5066384;28;20036;-76
2023/12/05 06:24:12;;;;;;;0.60;0.60;;;-0.50;99.90;;;;;;5068098;28;20044;-77
2023/12/05 06:26:38;;;;;;;0.70;0.70;;;-0.50;99.90;;;;;;5051131;28;20041;-76
2023/12/05 06:29:05;;;;;;;0.60;0.60;;;0.10;99.90;;;;;;5066906;28;20450;-76
2023/12/05 06:31:31;;;;;;;0.73;0.73;;;-0.50;99.90;;;;;;5066823;28;20610;-76
2023/12/05 06:33:58;;;;;;;0.75;0.75;;;-0.10;99.90;;;;;;5067308;28;20048;-76
2023/12/05 06:36:24;;;;;;;0.70;0.70;;;-0.50;99.90;;;;;;5034030;28;20468;-76
2023/12/05 06:38:49;;;;;;;0.80;0.80;;;-0.50;99.90;;;;;;5065566;28;20044;-75
2023/12/05 06:41:15;;;;;;;1.40;1.33;;;-0.50;99.90;;;;;;5068098;28;20053;-77
2023/12/05 06:43:41;;;;;;;0.70;0.70;;;-0.40;99.90;;;;;;5067630;28;20131;-75
2023/12/05 06:46:07;;;;;;;0.77;0.77;;;-0.50;99.90;;;;;;5066897;28;20036;-76
2023/12/05 06:48:33;;;;;;;;;;;-0.50;99.90;;;;;;5067271;28;20044;-75
2023/12/05 06:50:58;;;;;;;5.57;2.22;;;-0.50;99.90;;;;;;5084121;28;19931;-76
2023/12/05 06:53:24;;;;;;;0.63;0.63;;;-0.50;99.90;;;;;;5063962;28;20080;-75
2023/12/05 06:55:50;;;;;;;0.50;0.50;;;-0.50;99.90;;;;;;5065669;28;20456;-78
2023/12/05 06:58:16;;;;;;;0.73;0.73;;;-0.50;99.90;;;;;;5067358;28;20041;-76
2023/12/05 07:00:42;;;;;;;0.77;0.77;;;-0.50;99.90;;;;;;5049191;28;20040;-76
2023/12/05 07:03:08;;;;;;;0.70;0.70;;;-0.50;99.90;;;;;;5050209;28;20393;-77
2023/12/05 07:05:34;;;;;;;0.70;0.70;;;-0.50;99.90;;;;;;5054475;28;20040;-79
2023/12/05 07:08:00;;;;;;;0.63;0.63;;;-0.50;99.90;;;;;;5039472;28;20131;-78
2023/12/05 07:10:27;;;;;;;0.80;0.80;;;-0.50;99.90;;;;;;5046195;28;20052;-77
2023/12/05 07:12:53;;;;;;;0.70;0.70;;;-0.40;99.90;;;;;;5049214;28;20043;-77
2023/12/05 07:15:18;;;;;;;0.60;0.60;;;-0.50;99.90;;;;;;5068478;28;20036;-79
2023/12/05 07:17:44;;;;;;;0.65;0.65;;;-0.50;99.90;;;;;;5049670;28;20041;-79
2023/12/05 07:20:11;;;;;;;0.80;0.80;;;-0.10;99.90;;;;;;5084135;28;20044;-78
2023/12/05 07:22:38;;;;;;;1.48;1.20;;;-0.50;99.90;;;;;;5034291;28;20047;-78
2023/12/05 07:25:04;;;;;;;0.88;0.88;;;-0.50;99.90;;;;;;5064389;28;20041;-79
2023/12/05 07:27:29;;;;;;;;;;;-0.50;99.90;;;;;;5052154;28;20047;-77
2023/12/05 07:29:55;;;;;;;0.70;0.70;;;-0.50;99.90;;;;;;5053481;28;19924;-77
2023/12/05 07:32:21;;;;;;;0.70;0.70;;;-0.20;99.90;;;;;;5050775;28;20048;-78
2023/12/05 07:34:49;;;;;;;0.73;0.73;;;-0.50;99.90;;;;;;5050841;28;20044;-77
2023/12/05 07:37:15;;;;;;;0.80;0.80;;;-0.50;99.90;;;;;;5066631;28;20217;-77
2023/12/05 07:39:41;;;;;;;0.80;0.80;;;-0.20;99.90;;;;;;5081311;28;20927;-77
2023/12/05 07:42:06;;;;;;;0.70;0.70;;;-0.50;99.90;;;;;;5077508;28;20052;-76
2023/12/05 07:44:32;;;;;;;3.42;0.95;;;-0.50;99.90;;;;;;5050561;28;20115;-76
2023/12/05 07:46:58;;;;;;;0.70;0.70;;;-0.50;99.90;;;;;;5066592;28;20032;-76
2023/12/05 07:49:23;;;;;;;0.98;0.95;;;-0.40;99.90;;;;;;5052154;28;20044;-77
2023/12/05 07:51:49;;;;;;;0.57;0.57;;;-0.40;99.90;;;;;;5063709;28;20470;-78
2023/12/05 07:54:15;;;;;;;0.70;0.70;;;-0.40;99.90;;;;;;5051544;28;20477;-78
2023/12/05 07:56:40;;;;;;;0.68;0.68;;;-0.40;99.90;;;;;;5041595;28;20044;-77
2023/12/05 07:59:06;;;;;;;0.50;0.50;;;0.40;99.90;;;;;;5052503;28;20047;-76
2023/12/05 08:01:32;;;;;;;0.70;0.70;;;-0.70;99.90;;;;;;5065227;28;20037;-76
2023/12/05 08:04:01;;;;;;;0.70;0.70;;;-0.40;99.90;;;;;;5066639;28;20040;-77
2023/12/05 08:06:27;;;;;;;0.60;0.60;;;-0.30;99.90;;;;;;5066441;28;20552;-76
2023/12/05 08:08:52;;;;;;;0.70;0.70;;;-0.30;99.90;;;;;;5070741;28;20201;-78
2023/12/05 08:11:20;;;;;;;0.70;0.70;;;-0.30;99.90;;;;;;5082131;28;20102;-75
2023/12/05 08:13:47;;;;;;;0.68;0.68;;;-0.30;99.90;;;;;;5078827;28;20052;-76
2023/12/05 08:16:13;;;;;;;0.60;0.60;;;-0.30;99.90;;;;;;5051288;28;20050;-77
2023/12/05 08:18:39;;;;;;;0.85;0.82;;;-0.30;99.90;;;;;;5050080;28;20043;-77
2023/12/05 08:21:05;;;;;;;1.80;1.75;;;-0.30;99.90;;;;;;5067023;28;20036;-78
2023/12/05 08:23:31;;;;;;;0.60;0.60;;;-0.30;99.90;;;;;;5057798;28;20043;-78
2023/12/05 08:25:57;;;;;;;0.60;0.60;;;-0.20;99.90;;;;;;5072163;28;20120;-77
2023/12/05 08:28:22;;;;;;;0.57;0.57;;;-0.30;99.90;;;;;;5093816;28;20040;-79
2023/12/05 08:30:48;;;;;;;0.60;0.60;;;-0.20;99.90;;;;;;5071791;28;20055;-77
2023/12/05 08:33:14;;;;;;;0.75;0.75;;;-0.20;99.90;;;;;;5075176;28;20045;-77
2023/12/05 08:35:40;;;;;;;0.70;0.70;;;-0.60;99.90;;;;;;5070910;28;20068;-76
2023/12/05 08:38:06;;;;;;;0.75;0.75;;;-0.20;99.90;;;;;;5055466;28;20072;-78
2023/12/05 08:40:32;;;;;;;0.60;0.60;;;-0.20;99.90;;;;;;5083994;28;20122;-77
2023/12/05 08:42:57;;;;;;;0.60;0.60;;;-0.20;99.90;;;;;;5068529;28;20453;-78
2023/12/05 08:45:24;;;;;;;2.60;1.50;;;-0.20;99.90;;;;;;5068623;28;20040;-77
2023/12/05 08:47:53;;;;;;;0.80;0.80;;;-0.20;99.90;;;;;;5051725;28;20028;-77
2023/12/05 08:50:20;;;;;;;0.80;0.80;;;-0.20;99.90;;;;;;5082053;28;20061;-77
2023/12/05 08:52:46;;;;;;;0.70;0.70;;;0.80;99.90;;;;;;5067664;28;20086;-77
2023/12/05 08:55:12;;;;;;;;;;;-0.20;99.90;;;;;;5083114;28;20504;-77
2023/12/05 08:57:37;;;;;;;0.70;0.70;;;-0.10;99.90;;;;;;5067034;28;19923;-76
2023/12/05 09:00:04;;;;;;;0.70;0.70;;;-0.10;99.90;;;;;;5049512;28;20061;-76
2023/12/05 09:02:31;;;;;;;0.73;0.73;;;-0.10;99.90;;;;;;5050384;28;20078;-77
2023/12/05 09:04:56;;;;;;;0.70;0.70;;;-0.10;99.90;;;;;;5083349;28;20476;-78
2023/12/05 09:07:23;;;;;;;1.10;1.10;;;-0.10;99.90;;;;;;5064860;28;20048;-76
2023/12/05 09:09:49;;;;;;;0.85;0.85;;;0.30;99.90;;;;;;5069848;28;20040;-77
2023/12/05 09:12:15;;;;;;;1.02;1.02;;;0.30;99.90;;;;;;5052171;28;20068;-77
2023/12/05 09:14:42;;;;;;;0.70;0.70;;;0.00;99.90;;;;;;5065993;28;20125;-76
2023/12/05 09:17:11;;;;;;;0.98;0.98;;;0.00;99.90;;;;;;5069781;28;20419;-76
2023/12/05 09:19:37;;;;;;;0.65;0.65;;;0.10;99.90;;;;;;5066792;28;20497;-77
2023/12/05 09:22:03;;;;;;;0.70;0.70;;;0.10;99.90;;;;;;5066783;28;20028;-77
2023/12/05 09:24:29;;;;;;;0.88;0.88;;;0.20;99.90;;;;;;5068365;28;20036;-78
2023/12/05 09:26:55;;;;;;;0.60;0.60;;;0.10;99.90;;;;;;5068880;28;20048;-76
2023/12/05 09:29:21;;;;;;;0.90;0.90;;;0.20;99.90;;;;;;5068611;28;20055;-77
2023/12/05 09:31:46;;;;;;;0.70;0.70;;;0.20;99.90;;;;;;5049737;28;20474;-77
2023/12/05 09:34:12;;;;;;;0.55;0.55;;;0.20;99.90;;;;;;5083557;28;20450;-77
2023/12/05 09:36:38;;;;;;;0.52;0.52;;;0.20;99.90;;;;;;5066208;28;20045;-77
2023/12/05 09:39:04;;;;;;;1.98;1.88;;;0.30;99.90;;;;;;5067231;28;20539;-77
2023/12/05 09:41:30;;;;;;;;;;;0.20;99.90;;;;;;5050312;28;20446;-77
2023/12/05 09:44:00;;;;;;;0.60;0.60;;;0.30;99.90;;;;;;5066690;28;19920;-77
2023/12/05 09:46:28;;;;;;;0.60;0.60;;;0.30;99.90;;;;;;5067353;28;20070;-78
2023/12/05 09:49:00;;;;;;;1.05;1.05;;;0.30;99.90;;;;;;5067802;28;20044;-77
2023/12/05 09:51:26;;;;;;;0.60;0.60;;;0.40;99.90;;;;;;5050704;28;20121;-77
2023/12/05 09:53:55;;;;;;;1.17;1.17;;;0.50;99.90;;;;;;5069643;28;20056;-77
2023/12/05 09:56:22;;;;;;;0.70;0.70;;;0.60;99.90;;;;;;5068360;28;20162;-76
2023/12/05 09:58:48;;;;;;;0.60;0.60;;;0.90;99.90;;;;;;5067753;28;20469;-78
2023/12/05 10:01:15;;;;;;;;;;;0.70;99.90;;;;;;5069973;28;20840;-77
2023/12/05 10:03:41;;;;;;;0.50;0.50;;;0.70;99.90;;;;;;5052776;28;19964;-77
2023/12/05 10:06:09;;;;;;;0.60;0.60;;;0.70;99.90;;;;;;5068478;28;20047;-78
2023/12/05 10:08:35;;;;;;;0.57;0.57;;;0.70;99.90;;;;;;5069673;28;20064;-77
2023/12/05 10:11:04;;;;;;;0.50;0.50;;;0.80;99.90;;;;;;5067605;28;20048;-77
2023/12/05 10:13:30;;;;;;;0.70;0.70;;;0.80;99.90;;;;;;5069133;28;20064;-77
2023/12/05 10:15:58;;;;;;;0.60;0.60;;;0.90;99.90;;;;;;5069342;28;20036;-77
2023/12/05 10:18:27;;;;;;;0.60;0.60;;;0.90;99.90;;;;;;5050944;28;20101;-77
2023/12/05 10:20:52;;;;;;;0.60;0.60;;;1.00;99.90;;;;;;5083440;28;20043;-77
2023/12/05 10:23:18;;;;;;;0.60;0.60;;;1.10;99.90;;;;;;5068282;28;20033;-76
2023/12/05 10:25:44;;;;;;;0.70;0.70;;;1.50;99.90;;;;;;5051183;28;20036;-78
2023/12/05 10:28:12;;;;;;;0.60;0.60;;;1.10;99.90;;;;;;5065989;28;20488;-78
2023/12/05 10:30:38;;;;;;;0.52;0.52;;;1.80;99.90;;;;;;5067713;28;20048;-77
2023/12/05 10:33:11;;;;;;;;;;;2.40;99.90;;;;;;5051735;28;20071;-78
2023/12/05 10:35:37;;;;;;;;;;;1.40;99.90;;;;;;5066285;28;19920;-77
2023/12/05 10:38:06;;;;;;;;;;;1.40;99.90;;;;;;5068323;28;19921;-78
2023/12/05 10:40:51;;;;;;;;;;;1.30;99.90;;;;;;5066412;28;19958;-77
2023/12/05 10:43:17;;;;;;;;;;;1.30;99.90;;;;;;5068162;28;19920;-77
2023/12/05 10:45:43;;;;;;;;;;;1.30;99.90;;;;;;5050402;28;19916;-77
2023/12/05 10:48:09;;;;;;;;;;;1.30;99.90;;;;;;5068670;28;20487;-78
2023/12/05 10:50:35;;;;;;;;;;;1.20;99.90;;;;;;5083449;28;19981;-78
2023/12/05 10:53:01;;;;;;;;;;;1.10;99.90;;;;;;5064885;28;20338;-77
2023/12/05 10:55:26;;;;;;;;;;;1.10;99.90;;;;;;5049883;28;20033;-78
2023/12/05 10:57:52;;;;;;;;;;;1.10;99.90;;;;;;5067493;28;19965;-78
2023/12/05 11:00:18;;;;;;;;;;;1.40;99.90;;;;;;5049532;28;20046;-77
2023/12/05 11:02:45;;;;;;;;;;;1.10;99.90;;;;;;5067072;28;19921;-77
2023/12/05 11:05:12;;;;;;;;;;;1.20;99.90;;;;;;5065953;28;19920;-78
2023/12/05 11:07:38;;;;;;;;;;;1.00;99.90;;;;;;5066534;28;19920;-77
2023/12/05 11:10:04;;;;;;;;;;;0.90;99.90;;;;;;5081152;28;19932;-78
2023/12/05 11:12:29;;;;;;;;;;;0.90;99.90;;;;;;5062207;28;19924;-78
2023/12/05 11:14:55;;;;;;;;;;;0.70;99.90;;;;;;5064850;28;20322;-76
2023/12/05 11:17:23;;;;;;;;;;;0.80;99.90;;;;;;5066811;28;19923;-77
2023/12/05 11:20:08;;;;;;;;;;;0.60;99.90;;;;;;5066708;28;19951;-78
2023/12/05 11:22:41;;;;;;;;;;;0.70;99.90;;;;;;5066961;28;19989;-77
2023/12/05 11:25:13;;;;;;;;;;;0.80;99.90;;;;;;5067270;28;20142;-79
2023/12/05 11:27:58;;;;;;;;;;;0.60;99.90;;;;;;5066577;28;19970;-78
2023/12/05 11:30:36;;;;;;;;;;;0.60;99.90;;;;;;5063630;28;20389;-79
2023/12/05 11:33:01;;;;;;;;;;;0.60;99.90;;;;;;5083258;28;19924;-77
2023/12/05 11:35:47;;;;;;;;;;;0.90;99.90;;;;;;5066703;28;19928;-77
2023/12/05 11:38:14;;;;;;;;;;;0.60;99.90;;;;;;5067591;28;19939;-78
2023/12/05 11:40:40;;;;;;;;;;;1.00;99.90;;;;;;5072660;28;19924;-77
2023/12/05 11:43:05;;;;;;;;;;;0.60;99.90;;;;;;5065743;28;20323;-77
2023/12/05 11:45:31;;;;;;;;;;;0.50;99.90;;;;;;5066489;28;19924;-75
2023/12/05 11:48:01;;;;;;;;;;;0.50;99.90;;;;;;5067779;28;20019;-76
2023/12/05 11:50:38;;;;;;;;;;;0.60;99.90;;;;;;5066000;28;19920;-76
2023/12/05 11:53:04;;;;;;;;;;;0.50;99.90;;;;;;5066674;28;19924;-76
2023/12/05 11:55:30;;;;;;;;;;;0.50;99.90;;;;;;5069368;28;19950;-77
2023/12/05 11:57:56;;;;;;;;;;;1.50;99.90;;;;;;5072069;28;19920;-78
2023/12/05 12:00:21;;;;;;;;;;;0.70;99.90;;;;;;5067213;28;20380;-79
2023/12/05 12:02:47;;;;;;;;;;;0.90;99.90;;;;;;5077599;28;19943;-77
2023/12/05 12:05:14;;;;;;;;;;;0.40;99.90;;;;;;5069689;28;20464;-78
2023/12/05 12:07:58;;;;;;;;;;;0.40;99.90;;;;;;5068670;28;19924;-77
2023/12/05 12:10:24;;;;;;;;;;;0.40;99.90;;;;;;5082404;28;20461;-76
2023/12/05 12:12:50;;;;;;;;;;;0.50;99.90;;;;;;5049006;28;19916;-76
2023/12/05 12:15:16;;;;;;;;;;;0.40;99.90;;;;;;5070008;28;19920;-77
2023/12/05 12:17:42;;;;;;;;;;;0.30;99.90;;;;;;5053049;28;20000;-79
2023/12/05 12:20:12;;;;;;;;;;;0.40;99.90;;;;;;5068791;28;19974;-76
2023/12/05 12:22:38;;;;;;;;;;;0.50;99.90;;;;;;5070004;28;19920;-77
2023/12/05 12:25:13;;;;;;;;;;;0.90;99.90;;;;;;5069188;28;19978;-76
2023/12/05 12:27:43;;;;;;;;;;;0.70;99.90;;;;;;5069500;28;20295;-79
2023/12/05 12:30:11;;;;;;;;;;;0.30;99.90;;;;;;5052296;28;19928;-78
2023/12/05 12:32:50;;;;;;;;;;;0.30;99.90;;;;;;5066035;28;19961;-77
2023/12/05 12:35:16;;;;;;;;;;;0.30;99.90;;;;;;5053280;28;19974;-77
2023/12/05 12:37:42;;;;;;;;;;;0.60;99.90;;;;;;5070840;28;19956;-77
2023/12/05 12:40:08;;;;;;;;;;;0.30;99.90;;;;;;5038032;28;19921;-77
2023/12/05 12:42:33;;;;;;;;;;;0.30;99.90;;;;;;5072922;28;19962;-78
2023/12/05 12:45:00;;;;;;;;;;;0.20;99.90;;;;;;5055245;28;19924;-79
2023/12/05 12:47:26;;;;;;;;;;;0.60;99.90;;;;;;5049462;28;19920;-76
2023/12/05 12:49:52;;;;;;;;;;;0.20;99.90;;;;;;5036467;28;19958;-78
2023/12/05 12:52:18;;;;;;;;;;;0.80;99.90;;;;;;5071095;28;19920;-77
2023/12/05 12:54:43;;;;;;;;;;;0.20;99.90;;;;;;5071669;28;19973;-80
2023/12/05 12:57:09;;;;;;;;;;;0.30;99.90;;;;;;5052297;28;19920;-78
2023/12/05 12:59:36;;;;;;;;;;;0.40;99.90;;;;;;5069151;28;19924;-77
2023/12/05 13:02:04;;;;;;;;;;;0.40;99.90;;;;;;5068300;28;19961;-77
2023/12/05 13:04:34;;;;;;;;;;;0.30;99.90;;;;;;5068380;28;19916;-77
2023/12/05 13:06:59;;;;;;;;;;;0.30;99.90;;;;;;5067492;28;20361;-76